sensor_id;sensor_type;location;lat;lon;timestamp;P1;durP1;ratioP1;P2;durP2;ratioP2
14282;SDS011;7225;59.282;18.344;2022-07-11T00:00:06;2.03;;;0.60;;
14282;SDS011;7225;59.282;18.344;2022-07-11T00:02:36;0.97;;;0.57;;
14282;SDS011;7225;59.282;18.344;2022-07-11T00:05:07;0.90;;;0.63;;
14282;SDS011;7225;59.282;18.344;2022-07-11T00:07:36;1.20;;;0.60;;
14282;SDS011;7225;59.282;18.344;2022-07-11T00:10:04;0.60;;;0.60;;
14282;SDS011;7225;59.282;18.344;2022-07-11T00:12:31;1.97;;;0.60;;
14282;SDS011;7225;59.282;18.344;2022-07-11T00:14:59;2.27;;;0.70;;
14282;SDS011;7225;59.282;18.344;2022-07-11T00:17:26;0.53;;;0.50;;
14282;SDS011;7225;59.282;18.344;2022-07-11T00:19:55;1.27;;;0.67;;
14282;SDS011;7225;59.282;18.344;2022-07-11T00:22:22;1.33;;;0.73;;
14282;SDS011;7225;59.282;18.344;2022-07-11T00:24:49;0.60;;;0.60;;
14282;SDS011;7225;59.282;18.344;2022-07-11T00:27:17;0.80;;;0.80;;
14282;SDS011;7225;59.282;18.344;2022-07-11T00:29:44;1.47;;;0.70;;
14282;SDS011;7225;59.282;18.344;2022-07-11T00:32:12;0.53;;;0.50;;
14282;SDS011;7225;59.282;18.344;2022-07-11T00:34:41;2.87;;;0.80;;
14282;SDS011;7225;59.282;18.344;2022-07-11T00:37:10;1.57;;;0.70;;
14282;SDS011;7225;59.282;18.344;2022-07-11T00:39:38;0.80;;;0.53;;
14282;SDS011;7225;59.282;18.344;2022-07-11T00:42:05;0.80;;;0.70;;
14282;SDS011;7225;59.282;18.344;2022-07-11T00:44:33;0.50;;;0.50;;
14282;SDS011;7225;59.282;18.344;2022-07-11T00:47:04;1.57;;;0.93;;
14282;SDS011;7225;59.282;18.344;2022-07-11T00:49:33;0.57;;;0.53;;
14282;SDS011;7225;59.282;18.344;2022-07-11T00:52:00;2.17;;;0.60;;
14282;SDS011;7225;59.282;18.344;2022-07-11T00:54:28;1.80;;;0.80;;
14282;SDS011;7225;59.282;18.344;2022-07-11T00:56:56;1.20;;;0.70;;
14282;SDS011;7225;59.282;18.344;2022-07-11T00:59:24;0.50;;;0.50;;
14282;SDS011;7225;59.282;18.344;2022-07-11T01:01:55;0.90;;;0.60;;
14282;SDS011;7225;59.282;18.344;2022-07-11T01:04:23;0.93;;;0.70;;
14282;SDS011;7225;59.282;18.344;2022-07-11T01:06:51;1.10;;;0.80;;
14282;SDS011;7225;59.282;18.344;2022-07-11T01:09:18;0.70;;;0.70;;
14282;SDS011;7225;59.282;18.344;2022-07-11T01:11:45;1.00;;;0.90;;
14282;SDS011;7225;59.282;18.344;2022-07-11T01:14:12;3.53;;;0.80;;
14282;SDS011;7225;59.282;18.344;2022-07-11T01:16:40;1.03;;;0.60;;
14282;SDS011;7225;59.282;18.344;2022-07-11T01:19:08;0.90;;;0.60;;
14282;SDS011;7225;59.282;18.344;2022-07-11T01:21:36;0.67;;;0.60;;
14282;SDS011;7225;59.282;18.344;2022-07-11T01:24:08;0.80;;;0.60;;
14282;SDS011;7225;59.282;18.344;2022-07-11T01:26:35;0.60;;;0.60;;
14282;SDS011;7225;59.282;18.344;2022-07-11T01:29:09;1.47;;;0.60;;
14282;SDS011;7225;59.282;18.344;2022-07-11T01:31:38;0.90;;;0.53;;
14282;SDS011;7225;59.282;18.344;2022-07-11T01:34:06;0.97;;;0.70;;
14282;SDS011;7225;59.282;18.344;2022-07-11T01:36:34;0.80;;;0.70;;
14282;SDS011;7225;59.282;18.344;2022-07-11T01:39:02;0.80;;;0.80;;
14282;SDS011;7225;59.282;18.344;2022-07-11T01:41:29;1.97;;;0.60;;
14282;SDS011;7225;59.282;18.344;2022-07-11T01:43:57;0.87;;;0.47;;
14282;SDS011;7225;59.282;18.344;2022-07-11T01:46:25;0.60;;;0.60;;
14282;SDS011;7225;59.282;18.344;2022-07-11T01:48:53;0.57;;;0.50;;
14282;SDS011;7225;59.282;18.344;2022-07-11T01:51:24;0.73;;;0.73;;
14282;SDS011;7225;59.282;18.344;2022-07-11T01:53:52;0.83;;;0.80;;
14282;SDS011;7225;59.282;18.344;2022-07-11T01:56:22;0.60;;;0.60;;
14282;SDS011;7225;59.282;18.344;2022-07-11T01:58:57;0.60;;;0.60;;
14282;SDS011;7225;59.282;18.344;2022-07-11T02:01:24;1.43;;;0.70;;
14282;SDS011;7225;59.282;18.344;2022-07-11T02:03:53;2.10;;;0.80;;
14282;SDS011;7225;59.282;18.344;2022-07-11T02:06:22;2.73;;;0.50;;
14282;SDS011;7225;59.282;18.344;2022-07-11T02:08:51;0.53;;;0.53;;
14282;SDS011;7225;59.282;18.344;2022-07-11T02:11:20;1.33;;;0.77;;
14282;SDS011;7225;59.282;18.344;2022-07-11T02:13:47;0.93;;;0.77;;
14282;SDS011;7225;59.282;18.344;2022-07-11T02:16:14;0.70;;;0.60;;
14282;SDS011;7225;59.282;18.344;2022-07-11T02:18:42;0.67;;;0.67;;
14282;SDS011;7225;59.282;18.344;2022-07-11T02:21:09;1.20;;;0.77;;
14282;SDS011;7225;59.282;18.344;2022-07-11T02:23:38;0.50;;;0.50;;
14282;SDS011;7225;59.282;18.344;2022-07-11T02:26:08;3.70;;;0.70;;
14282;SDS011;7225;59.282;18.344;2022-07-11T02:28:37;0.50;;;0.50;;
14282;SDS011;7225;59.282;18.344;2022-07-11T02:31:07;0.40;;;0.40;;
14282;SDS011;7225;59.282;18.344;2022-07-11T02:33:35;0.50;;;0.50;;
14282;SDS011;7225;59.282;18.344;2022-07-11T02:36:02;1.43;;;0.90;;
14282;SDS011;7225;59.282;18.344;2022-07-11T02:38:30;0.70;;;0.70;;
14282;SDS011;7225;59.282;18.344;2022-07-11T02:40:57;2.07;;;0.80;;
14282;SDS011;7225;59.282;18.344;2022-07-11T02:43:27;2.17;;;0.90;;
14282;SDS011;7225;59.282;18.344;2022-07-11T02:45:55;0.63;;;0.63;;
14282;SDS011;7225;59.282;18.344;2022-07-11T02:48:24;0.87;;;0.60;;
14282;SDS011;7225;59.282;18.344;2022-07-11T02:50:50;1.23;;;0.73;;
14282;SDS011;7225;59.282;18.344;2022-07-11T02:53:17;0.90;;;0.90;;
14282;SDS011;7225;59.282;18.344;2022-07-11T02:55:44;2.50;;;0.90;;
14282;SDS011;7225;59.282;18.344;2022-07-11T02:58:12;1.00;;;0.70;;
14282;SDS011;7225;59.282;18.344;2022-07-11T03:00:40;1.50;;;0.77;;
14282;SDS011;7225;59.282;18.344;2022-07-11T03:03:08;0.73;;;0.60;;
14282;SDS011;7225;59.282;18.344;2022-07-11T03:05:36;0.60;;;0.60;;
14282;SDS011;7225;59.282;18.344;2022-07-11T03:08:03;0.90;;;0.70;;
14282;SDS011;7225;59.282;18.344;2022-07-11T03:10:30;0.90;;;0.90;;
14282;SDS011;7225;59.282;18.344;2022-07-11T03:12:57;1.60;;;0.70;;
14282;SDS011;7225;59.282;18.344;2022-07-11T03:15:24;2.97;;;0.80;;
14282;SDS011;7225;59.282;18.344;2022-07-11T03:17:52;1.00;;;0.70;;
14282;SDS011;7225;59.282;18.344;2022-07-11T03:20:20;1.53;;;0.80;;
14282;SDS011;7225;59.282;18.344;2022-07-11T03:22:47;1.17;;;0.63;;
14282;SDS011;7225;59.282;18.344;2022-07-11T03:25:15;0.87;;;0.67;;
14282;SDS011;7225;59.282;18.344;2022-07-11T03:27:43;1.30;;;0.80;;
14282;SDS011;7225;59.282;18.344;2022-07-11T03:30:11;2.47;;;0.90;;
14282;SDS011;7225;59.282;18.344;2022-07-11T03:32:39;1.10;;;0.70;;
14282;SDS011;7225;59.282;18.344;2022-07-11T03:35:07;1.17;;;0.80;;
14282;SDS011;7225;59.282;18.344;2022-07-11T03:37:53;0.50;;;0.50;;
14282;SDS011;7225;59.282;18.344;2022-07-11T03:40:22;0.90;;;0.77;;
14282;SDS011;7225;59.282;18.344;2022-07-11T03:42:50;0.87;;;0.83;;
14282;SDS011;7225;59.282;18.344;2022-07-11T03:45:18;0.87;;;0.70;;
14282;SDS011;7225;59.282;18.344;2022-07-11T03:47:45;0.80;;;0.73;;
14282;SDS011;7225;59.282;18.344;2022-07-11T03:50:14;0.73;;;0.73;;
14282;SDS011;7225;59.282;18.344;2022-07-11T03:52:42;0.93;;;0.70;;
14282;SDS011;7225;59.282;18.344;2022-07-11T03:55:10;0.80;;;0.80;;
14282;SDS011;7225;59.282;18.344;2022-07-11T03:57:37;2.93;;;0.87;;
14282;SDS011;7225;59.282;18.344;2022-07-11T04:00:06;0.60;;;0.60;;
14282;SDS011;7225;59.282;18.344;2022-07-11T04:02:35;1.70;;;0.87;;
14282;SDS011;7225;59.282;18.344;2022-07-11T04:05:04;0.70;;;0.70;;
14282;SDS011;7225;59.282;18.344;2022-07-11T04:07:33;0.90;;;0.70;;
14282;SDS011;7225;59.282;18.344;2022-07-11T04:10:01;0.53;;;0.53;;
14282;SDS011;7225;59.282;18.344;2022-07-11T04:12:28;0.80;;;0.80;;
14282;SDS011;7225;59.282;18.344;2022-07-11T04:14:55;2.30;;;1.00;;
14282;SDS011;7225;59.282;18.344;2022-07-11T04:17:23;0.67;;;0.67;;
14282;SDS011;7225;59.282;18.344;2022-07-11T04:19:53;2.30;;;0.80;;
14282;SDS011;7225;59.282;18.344;2022-07-11T04:22:22;0.63;;;0.60;;
14282;SDS011;7225;59.282;18.344;2022-07-11T04:24:51;0.80;;;0.80;;
14282;SDS011;7225;59.282;18.344;2022-07-11T04:27:18;0.83;;;0.70;;
14282;SDS011;7225;59.282;18.344;2022-07-11T04:29:48;3.13;;;0.80;;
14282;SDS011;7225;59.282;18.344;2022-07-11T04:32:15;0.43;;;0.43;;
14282;SDS011;7225;59.282;18.344;2022-07-11T04:34:45;0.73;;;0.53;;
14282;SDS011;7225;59.282;18.344;2022-07-11T04:37:14;0.60;;;0.60;;
14282;SDS011;7225;59.282;18.344;2022-07-11T04:39:41;1.87;;;0.80;;
14282;SDS011;7225;59.282;18.344;2022-07-11T04:42:13;0.90;;;0.60;;
14282;SDS011;7225;59.282;18.344;2022-07-11T04:44:41;0.63;;;0.60;;
14282;SDS011;7225;59.282;18.344;2022-07-11T04:47:08;1.03;;;0.60;;
14282;SDS011;7225;59.282;18.344;2022-07-11T04:49:36;0.63;;;0.50;;
14282;SDS011;7225;59.282;18.344;2022-07-11T04:52:05;2.47;;;0.70;;
14282;SDS011;7225;59.282;18.344;2022-07-11T04:54:36;2.80;;;0.73;;
14282;SDS011;7225;59.282;18.344;2022-07-11T04:57:04;0.53;;;0.50;;
14282;SDS011;7225;59.282;18.344;2022-07-11T04:59:34;1.10;;;0.70;;
14282;SDS011;7225;59.282;18.344;2022-07-11T05:02:01;1.03;;;0.53;;
14282;SDS011;7225;59.282;18.344;2022-07-11T05:04:30;0.50;;;0.50;;
14282;SDS011;7225;59.282;18.344;2022-07-11T05:06:58;1.10;;;0.60;;
14282;SDS011;7225;59.282;18.344;2022-07-11T05:09:27;0.57;;;0.57;;
14282;SDS011;7225;59.282;18.344;2022-07-11T05:11:54;2.07;;;0.57;;
14282;SDS011;7225;59.282;18.344;2022-07-11T05:14:22;1.00;;;0.60;;
14282;SDS011;7225;59.282;18.344;2022-07-11T05:16:50;1.60;;;0.60;;
14282;SDS011;7225;59.282;18.344;2022-07-11T05:19:18;0.60;;;0.60;;
14282;SDS011;7225;59.282;18.344;2022-07-11T05:21:46;1.67;;;0.60;;
14282;SDS011;7225;59.282;18.344;2022-07-11T05:24:14;0.50;;;0.50;;
14282;SDS011;7225;59.282;18.344;2022-07-11T05:26:46;0.83;;;0.40;;
14282;SDS011;7225;59.282;18.344;2022-07-11T05:29:14;0.87;;;0.47;;
14282;SDS011;7225;59.282;18.344;2022-07-11T05:31:41;2.37;;;0.40;;
14282;SDS011;7225;59.282;18.344;2022-07-11T05:34:10;0.60;;;0.40;;
14282;SDS011;7225;59.282;18.344;2022-07-11T05:36:39;0.77;;;0.50;;
14282;SDS011;7225;59.282;18.344;2022-07-11T05:39:06;0.60;;;0.30;;
14282;SDS011;7225;59.282;18.344;2022-07-11T05:41:34;0.60;;;0.37;;
14282;SDS011;7225;59.282;18.344;2022-07-11T05:44:01;0.53;;;0.30;;
14282;SDS011;7225;59.282;18.344;2022-07-11T05:46:28;0.63;;;0.50;;
14282;SDS011;7225;59.282;18.344;2022-07-11T05:48:55;0.63;;;0.37;;
14282;SDS011;7225;59.282;18.344;2022-07-11T05:51:23;0.30;;;0.30;;
14282;SDS011;7225;59.282;18.344;2022-07-11T05:53:51;0.30;;;0.30;;
14282;SDS011;7225;59.282;18.344;2022-07-11T05:56:19;0.43;;;0.43;;
14282;SDS011;7225;59.282;18.344;2022-07-11T05:58:46;0.73;;;0.30;;
14282;SDS011;7225;59.282;18.344;2022-07-11T06:01:14;0.80;;;0.40;;
14282;SDS011;7225;59.282;18.344;2022-07-11T06:03:43;1.80;;;0.40;;
14282;SDS011;7225;59.282;18.344;2022-07-11T06:06:12;0.27;;;0.27;;
14282;SDS011;7225;59.282;18.344;2022-07-11T06:08:40;0.93;;;0.53;;
14282;SDS011;7225;59.282;18.344;2022-07-11T06:11:09;0.60;;;0.40;;
14282;SDS011;7225;59.282;18.344;2022-07-11T06:13:39;4.80;;;0.67;;
14282;SDS011;7225;59.282;18.344;2022-07-11T06:16:10;0.63;;;0.23;;
14282;SDS011;7225;59.282;18.344;2022-07-11T06:18:40;0.70;;;0.40;;
14282;SDS011;7225;59.282;18.344;2022-07-11T06:21:08;1.40;;;0.30;;
14282;SDS011;7225;59.282;18.344;2022-07-11T06:23:36;0.30;;;0.30;;
14282;SDS011;7225;59.282;18.344;2022-07-11T06:26:04;2.63;;;0.30;;
14282;SDS011;7225;59.282;18.344;2022-07-11T06:28:32;0.77;;;0.20;;
14282;SDS011;7225;59.282;18.344;2022-07-11T06:31:01;0.20;;;0.20;;
14282;SDS011;7225;59.282;18.344;2022-07-11T06:33:29;0.40;;;0.30;;
14282;SDS011;7225;59.282;18.344;2022-07-11T06:35:58;0.50;;;0.40;;
14282;SDS011;7225;59.282;18.344;2022-07-11T06:38:25;1.00;;;0.30;;
14282;SDS011;7225;59.282;18.344;2022-07-11T06:40:53;0.20;;;0.20;;
14282;SDS011;7225;59.282;18.344;2022-07-11T06:43:20;0.10;;;0.10;;
14282;SDS011;7225;59.282;18.344;2022-07-11T06:45:48;1.23;;;0.27;;
14282;SDS011;7225;59.282;18.344;2022-07-11T06:48:16;0.30;;;0.20;;
14282;SDS011;7225;59.282;18.344;2022-07-11T06:50:45;0.50;;;0.20;;
14282;SDS011;7225;59.282;18.344;2022-07-11T06:53:13;1.23;;;0.30;;
14282;SDS011;7225;59.282;18.344;2022-07-11T06:55:41;0.20;;;0.17;;
14282;SDS011;7225;59.282;18.344;2022-07-11T06:58:09;0.10;;;0.10;;
14282;SDS011;7225;59.282;18.344;2022-07-11T07:00:52;0.13;;;0.13;;
14282;SDS011;7225;59.282;18.344;2022-07-11T07:03:19;0.40;;;0.17;;
14282;SDS011;7225;59.282;18.344;2022-07-11T07:05:47;0.10;;;0.10;;
14282;SDS011;7225;59.282;18.344;2022-07-11T07:08:14;0.00;;;0.00;;
14282;SDS011;7225;59.282;18.344;2022-07-11T07:10:42;0.20;;;0.20;;
14282;SDS011;7225;59.282;18.344;2022-07-11T07:13:10;0.37;;;0.30;;
14282;SDS011;7225;59.282;18.344;2022-07-11T07:15:38;1.17;;;0.20;;
14282;SDS011;7225;59.282;18.344;2022-07-11T07:18:06;0.10;;;0.10;;
14282;SDS011;7225;59.282;18.344;2022-07-11T07:20:35;0.10;;;0.10;;
14282;SDS011;7225;59.282;18.344;2022-07-11T07:23:02;0.20;;;0.20;;
14282;SDS011;7225;59.282;18.344;2022-07-11T07:25:30;0.10;;;0.10;;
14282;SDS011;7225;59.282;18.344;2022-07-11T07:27:57;0.17;;;0.17;;
14282;SDS011;7225;59.282;18.344;2022-07-11T07:30:25;0.23;;;0.17;;
14282;SDS011;7225;59.282;18.344;2022-07-11T07:32:52;0.63;;;0.10;;
14282;SDS011;7225;59.282;18.344;2022-07-11T07:35:20;0.30;;;0.30;;
14282;SDS011;7225;59.282;18.344;2022-07-11T07:37:49;0.20;;;0.20;;
14282;SDS011;7225;59.282;18.344;2022-07-11T07:40:17;0.60;;;0.10;;
14282;SDS011;7225;59.282;18.344;2022-07-11T07:42:45;0.60;;;0.10;;
14282;SDS011;7225;59.282;18.344;2022-07-11T07:45:12;1.25;;;0.13;;
14282;SDS011;7225;59.282;18.344;2022-07-11T07:47:40;0.20;;;0.17;;
14282;SDS011;7225;59.282;18.344;2022-07-11T07:50:08;0.17;;;0.17;;
14282;SDS011;7225;59.282;18.344;2022-07-11T07:52:36;0.20;;;0.20;;
14282;SDS011;7225;59.282;18.344;2022-07-11T07:55:04;0.32;;;0.10;;
14282;SDS011;7225;59.282;18.344;2022-07-11T07:57:33;0.68;;;0.20;;
14282;SDS011;7225;59.282;18.344;2022-07-11T08:00:03;0.10;;;0.10;;
14282;SDS011;7225;59.282;18.344;2022-07-11T08:02:50;0.40;;;0.20;;
14282;SDS011;7225;59.282;18.344;2022-07-11T08:05:18;0.80;;;0.60;;
14282;SDS011;7225;59.282;18.344;2022-07-11T08:07:47;0.63;;;0.30;;
14282;SDS011;7225;59.282;18.344;2022-07-11T08:10:15;0.32;;;0.20;;
14282;SDS011;7225;59.282;18.344;2022-07-11T08:12:43;1.95;;;0.28;;
14282;SDS011;7225;59.282;18.344;2022-07-11T08:15:13;0.03;;;0.03;;
14282;SDS011;7225;59.282;18.344;2022-07-11T08:17:41;0.52;;;0.52;;
14282;SDS011;7225;59.282;18.344;2022-07-11T08:20:10;0.30;;;0.10;;
14282;SDS011;7225;59.282;18.344;2022-07-11T08:22:40;0.10;;;0.10;;
14282;SDS011;7225;59.282;18.344;2022-07-11T08:25:08;0.20;;;0.08;;
14282;SDS011;7225;59.282;18.344;2022-07-11T08:27:36;0.30;;;0.20;;
14282;SDS011;7225;59.282;18.344;2022-07-11T08:30:07;0.65;;;0.10;;
14282;SDS011;7225;59.282;18.344;2022-07-11T08:32:39;1.05;;;0.15;;
14282;SDS011;7225;59.282;18.344;2022-07-11T08:35:09;0.10;;;0.10;;
14282;SDS011;7225;59.282;18.344;2022-07-11T08:37:39;1.17;;;0.15;;
14282;SDS011;7225;59.282;18.344;2022-07-11T08:40:07;1.75;;;0.25;;
14282;SDS011;7225;59.282;18.344;2022-07-11T08:42:42;0.60;;;0.30;;
14282;SDS011;7225;59.282;18.344;2022-07-11T08:45:13;0.20;;;0.10;;
14282;SDS011;7225;59.282;18.344;2022-07-11T08:47:45;0.10;;;0.10;;
14282;SDS011;7225;59.282;18.344;2022-07-11T08:50:13;0.77;;;0.15;;
14282;SDS011;7225;59.282;18.344;2022-07-11T08:52:41;0.20;;;0.13;;
14282;SDS011;7225;59.282;18.344;2022-07-11T08:55:10;0.52;;;0.10;;
14282;SDS011;7225;59.282;18.344;2022-07-11T08:57:38;0.13;;;0.10;;
14282;SDS011;7225;59.282;18.344;2022-07-11T09:00:07;0.52;;;0.03;;
14282;SDS011;7225;59.282;18.344;2022-07-11T09:02:37;0.20;;;0.17;;
14282;SDS011;7225;59.282;18.344;2022-07-11T09:05:09;0.20;;;0.20;;
14282;SDS011;7225;59.282;18.344;2022-07-11T09:07:48;1.15;;;0.20;;
14282;SDS011;7225;59.282;18.344;2022-07-11T09:10:18;0.20;;;0.10;;
14282;SDS011;7225;59.282;18.344;2022-07-11T09:12:59;0.00;;;0.00;;
14282;SDS011;7225;59.282;18.344;2022-07-11T09:15:40;0.40;;;0.08;;
14282;SDS011;7225;59.282;18.344;2022-07-11T09:21:12;0.38;;;0.10;;
14282;SDS011;7225;59.282;18.344;2022-07-11T09:24:01;0.43;;;0.10;;
14282;SDS011;7225;59.282;18.344;2022-07-11T09:26:50;0.10;;;0.10;;
14282;SDS011;7225;59.282;18.344;2022-07-11T09:29:19;0.00;;;0.00;;
14282;SDS011;7225;59.282;18.344;2022-07-11T09:31:48;0.55;;;0.10;;
14282;SDS011;7225;59.282;18.344;2022-07-11T09:34:18;0.08;;;0.08;;
14282;SDS011;7225;59.282;18.344;2022-07-11T09:36:51;0.10;;;0.10;;
14282;SDS011;7225;59.282;18.344;2022-07-11T09:39:24;0.43;;;0.00;;
14282;SDS011;7225;59.282;18.344;2022-07-11T09:41:55;0.10;;;0.10;;
14282;SDS011;7225;59.282;18.344;2022-07-11T09:44:24;0.03;;;0.03;;
14282;SDS011;7225;59.282;18.344;2022-07-11T09:46:57;0.52;;;0.20;;
14282;SDS011;7225;59.282;18.344;2022-07-11T09:49:35;2.10;;;0.20;;
14282;SDS011;7225;59.282;18.344;2022-07-11T09:52:15;0.10;;;0.10;;
14282;SDS011;7225;59.282;18.344;2022-07-11T09:54:57;0.15;;;0.00;;
14282;SDS011;7225;59.282;18.344;2022-07-11T09:57:51;0.15;;;0.13;;
14282;SDS011;7225;59.282;18.344;2022-07-11T10:00:15;0.20;;;0.20;;
14282;SDS011;7225;59.282;18.344;2022-07-11T10:02:43;0.15;;;0.15;;
14282;SDS011;7225;59.282;18.344;2022-07-11T10:05:12;0.03;;;0.03;;
14282;SDS011;7225;59.282;18.344;2022-07-11T10:07:39;0.00;;;0.00;;
14282;SDS011;7225;59.282;18.344;2022-07-11T10:10:07;0.10;;;0.10;;
14282;SDS011;7225;59.282;18.344;2022-07-11T10:12:37;0.20;;;0.10;;
14282;SDS011;7225;59.282;18.344;2022-07-11T10:15:05;0.90;;;0.00;;
14282;SDS011;7225;59.282;18.344;2022-07-11T10:17:52;0.10;;;0.10;;
14282;SDS011;7225;59.282;18.344;2022-07-11T10:20:39;0.20;;;0.10;;
14282;SDS011;7225;59.282;18.344;2022-07-11T10:23:22;0.10;;;0.10;;
14282;SDS011;7225;59.282;18.344;2022-07-11T10:26:08;0.30;;;0.10;;
14282;SDS011;7225;59.282;18.344;2022-07-11T10:29:07;0.20;;;0.20;;
14282;SDS011;7225;59.282;18.344;2022-07-11T10:32:05;0.13;;;0.10;;
14282;SDS011;7225;59.282;18.344;2022-07-11T10:34:41;0.10;;;0.10;;
14282;SDS011;7225;59.282;18.344;2022-07-11T10:37:09;0.45;;;0.10;;
14282;SDS011;7225;59.282;18.344;2022-07-11T10:39:39;0.10;;;0.10;;
14282;SDS011;7225;59.282;18.344;2022-07-11T10:42:25;0.00;;;0.00;;
14282;SDS011;7225;59.282;18.344;2022-07-11T10:45:09;0.63;;;0.20;;
14282;SDS011;7225;59.282;18.344;2022-07-11T10:47:45;0.10;;;0.00;;
14282;SDS011;7225;59.282;18.344;2022-07-11T10:50:34;0.00;;;0.00;;
14282;SDS011;7225;59.282;18.344;2022-07-11T10:53:09;0.05;;;0.05;;
14282;SDS011;7225;59.282;18.344;2022-07-11T10:55:47;0.52;;;0.20;;
14282;SDS011;7225;59.282;18.344;2022-07-11T10:58:31;0.82;;;0.15;;
14282;SDS011;7225;59.282;18.344;2022-07-11T11:01:12;0.50;;;0.10;;
14282;SDS011;7225;59.282;18.344;2022-07-11T11:03:42;0.45;;;0.20;;
14282;SDS011;7225;59.282;18.344;2022-07-11T11:06:11;0.10;;;0.00;;
14282;SDS011;7225;59.282;18.344;2022-07-11T11:08:39;0.35;;;0.10;;
14282;SDS011;7225;59.282;18.344;2022-07-11T11:16:43;0.13;;;0.10;;
14282;SDS011;7225;59.282;18.344;2022-07-11T11:22:18;0.28;;;0.10;;
14282;SDS011;7225;59.282;18.344;2022-07-11T11:24:49;0.22;;;0.10;;
14282;SDS011;7225;59.282;18.344;2022-07-11T11:27:39;0.43;;;0.20;;
14282;SDS011;7225;59.282;18.344;2022-07-11T11:30:30;1.05;;;0.45;;
14282;SDS011;7225;59.282;18.344;2022-07-11T11:33:00;0.20;;;0.20;;
14282;SDS011;7225;59.282;18.344;2022-07-11T11:35:41;0.55;;;0.20;;
14282;SDS011;7225;59.282;18.344;2022-07-11T11:38:09;0.40;;;0.30;;
14282;SDS011;7225;59.282;18.344;2022-07-11T11:40:46;2.03;;;1.92;;
14282;SDS011;7225;59.282;18.344;2022-07-11T11:43:20;0.30;;;0.30;;
14282;SDS011;7225;59.282;18.344;2022-07-11T11:45:49;0.60;;;0.60;;
14282;SDS011;7225;59.282;18.344;2022-07-11T11:48:29;0.00;;;0.00;;
14282;SDS011;7225;59.282;18.344;2022-07-11T11:53:44;0.30;;;0.20;;
14282;SDS011;7225;59.282;18.344;2022-07-11T11:59:01;2.92;;;0.57;;
14282;SDS011;7225;59.282;18.344;2022-07-11T12:01:46;0.47;;;0.40;;
14282;SDS011;7225;59.282;18.344;2022-07-11T12:04:17;1.65;;;0.10;;
14282;SDS011;7225;59.282;18.344;2022-07-11T12:06:46;0.10;;;0.10;;
14282;SDS011;7225;59.282;18.344;2022-07-11T12:09:21;0.30;;;0.28;;
14282;SDS011;7225;59.282;18.344;2022-07-11T12:12:10;0.20;;;0.20;;
14282;SDS011;7225;59.282;18.344;2022-07-11T12:14:57;0.00;;;0.00;;
14282;SDS011;7225;59.282;18.344;2022-07-11T12:17:26;0.20;;;0.10;;
14282;SDS011;7225;59.282;18.344;2022-07-11T12:19:57;0.57;;;0.20;;
14282;SDS011;7225;59.282;18.344;2022-07-11T12:22:26;0.10;;;0.10;;
14282;SDS011;7225;59.282;18.344;2022-07-11T12:24:55;0.20;;;0.10;;
14282;SDS011;7225;59.282;18.344;2022-07-11T12:27:25;0.10;;;0.10;;
14282;SDS011;7225;59.282;18.344;2022-07-11T12:29:53;0.20;;;0.10;;
14282;SDS011;7225;59.282;18.344;2022-07-11T12:32:21;0.10;;;0.10;;
14282;SDS011;7225;59.282;18.344;2022-07-11T12:34:49;0.10;;;0.10;;
14282;SDS011;7225;59.282;18.344;2022-07-11T12:37:35;0.10;;;0.10;;
14282;SDS011;7225;59.282;18.344;2022-07-11T12:40:05;0.10;;;0.10;;
14282;SDS011;7225;59.282;18.344;2022-07-11T12:42:42;0.22;;;0.13;;
14282;SDS011;7225;59.282;18.344;2022-07-11T12:45:14;0.57;;;0.20;;
14282;SDS011;7225;59.282;18.344;2022-07-11T12:47:49;1.52;;;0.38;;
14282;SDS011;7225;59.282;18.344;2022-07-11T12:50:22;0.25;;;0.10;;
14282;SDS011;7225;59.282;18.344;2022-07-11T12:52:53;1.15;;;0.25;;
14282;SDS011;7225;59.282;18.344;2022-07-11T12:55:32;0.20;;;0.10;;
14282;SDS011;7225;59.282;18.344;2022-07-11T13:00:38;0.80;;;0.40;;
14282;SDS011;7225;59.282;18.344;2022-07-11T13:03:09;0.13;;;0.10;;
14282;SDS011;7225;59.282;18.344;2022-07-11T13:05:57;0.20;;;0.20;;
14282;SDS011;7225;59.282;18.344;2022-07-11T13:08:36;2.53;;;0.35;;
14282;SDS011;7225;59.282;18.344;2022-07-11T13:11:16;0.50;;;0.30;;
14282;SDS011;7225;59.282;18.344;2022-07-11T13:13:52;0.30;;;0.30;;
14282;SDS011;7225;59.282;18.344;2022-07-11T13:16:20;1.42;;;0.40;;
14282;SDS011;7225;59.282;18.344;2022-07-11T13:18:48;0.90;;;0.30;;
14282;SDS011;7225;59.282;18.344;2022-07-11T13:21:16;0.30;;;0.30;;
14282;SDS011;7225;59.282;18.344;2022-07-11T13:23:45;0.20;;;0.20;;
14282;SDS011;7225;59.282;18.344;2022-07-11T13:26:13;0.47;;;0.25;;
14282;SDS011;7225;59.282;18.344;2022-07-11T13:28:41;0.40;;;0.30;;
14282;SDS011;7225;59.282;18.344;2022-07-11T13:31:09;0.20;;;0.20;;
14282;SDS011;7225;59.282;18.344;2022-07-11T13:33:40;0.95;;;0.20;;
14282;SDS011;7225;59.282;18.344;2022-07-11T13:36:09;0.20;;;0.10;;
14282;SDS011;7225;59.282;18.344;2022-07-11T13:38:38;0.50;;;0.20;;
14282;SDS011;7225;59.282;18.344;2022-07-11T13:41:06;0.45;;;0.28;;
14282;SDS011;7225;59.282;18.344;2022-07-11T13:43:39;0.65;;;0.35;;
14282;SDS011;7225;59.282;18.344;2022-07-11T13:46:08;0.63;;;0.30;;
14282;SDS011;7225;59.282;18.344;2022-07-11T13:48:37;0.88;;;0.30;;
14282;SDS011;7225;59.282;18.344;2022-07-11T13:51:08;1.35;;;0.30;;
14282;SDS011;7225;59.282;18.344;2022-07-11T13:53:36;0.45;;;0.25;;
14282;SDS011;7225;59.282;18.344;2022-07-11T13:56:04;0.30;;;0.30;;
14282;SDS011;7225;59.282;18.344;2022-07-11T13:58:32;1.52;;;0.30;;
14282;SDS011;7225;59.282;18.344;2022-07-11T14:01:01;2.17;;;0.50;;
14282;SDS011;7225;59.282;18.344;2022-07-11T14:03:29;1.00;;;0.20;;
14282;SDS011;7225;59.282;18.344;2022-07-11T14:13:29;0.30;;;0.30;;
14282;SDS011;7225;59.282;18.344;2022-07-11T14:15:58;0.47;;;0.40;;
14282;SDS011;7225;59.282;18.344;2022-07-11T14:18:33;1.92;;;0.40;;
14282;SDS011;7225;59.282;18.344;2022-07-11T14:21:02;0.63;;;0.47;;
14282;SDS011;7225;59.282;18.344;2022-07-11T14:23:30;0.57;;;0.32;;
14282;SDS011;7225;59.282;18.344;2022-07-11T14:25:57;0.65;;;0.28;;
14282;SDS011;7225;59.282;18.344;2022-07-11T14:28:26;0.30;;;0.30;;
14282;SDS011;7225;59.282;18.344;2022-07-11T14:30:56;0.40;;;0.40;;
14282;SDS011;7225;59.282;18.344;2022-07-11T14:33:25;0.52;;;0.32;;
14282;SDS011;7225;59.282;18.344;2022-07-11T14:35:59;0.30;;;0.30;;
14282;SDS011;7225;59.282;18.344;2022-07-11T14:38:28;0.93;;;0.22;;
14282;SDS011;7225;59.282;18.344;2022-07-11T14:40:57;0.40;;;0.30;;
14282;SDS011;7225;59.282;18.344;2022-07-11T14:43:26;0.20;;;0.20;;
14282;SDS011;7225;59.282;18.344;2022-07-11T14:45:58;0.57;;;0.30;;
14282;SDS011;7225;59.282;18.344;2022-07-11T14:48:27;0.20;;;0.20;;
14282;SDS011;7225;59.282;18.344;2022-07-11T14:50:55;0.40;;;0.32;;
14282;SDS011;7225;59.282;18.344;2022-07-11T14:53:22;1.00;;;0.20;;
14282;SDS011;7225;59.282;18.344;2022-07-11T14:55:49;0.60;;;0.32;;
14282;SDS011;7225;59.282;18.344;2022-07-11T14:58:36;1.10;;;0.30;;
14282;SDS011;7225;59.282;18.344;2022-07-11T15:01:03;0.57;;;0.20;;
14282;SDS011;7225;59.282;18.344;2022-07-11T15:03:31;0.88;;;0.30;;
14282;SDS011;7225;59.282;18.344;2022-07-11T15:06:05;0.82;;;0.40;;
14282;SDS011;7225;59.282;18.344;2022-07-11T15:08:34;1.27;;;0.47;;
14282;SDS011;7225;59.282;18.344;2022-07-11T15:11:21;0.43;;;0.28;;
14282;SDS011;7225;59.282;18.344;2022-07-11T15:14:08;0.68;;;0.43;;
14282;SDS011;7225;59.282;18.344;2022-07-11T15:16:38;0.63;;;0.20;;
14282;SDS011;7225;59.282;18.344;2022-07-11T15:19:13;0.28;;;0.28;;
14282;SDS011;7225;59.282;18.344;2022-07-11T15:21:41;0.75;;;0.40;;
14282;SDS011;7225;59.282;18.344;2022-07-11T15:24:09;0.30;;;0.30;;
14282;SDS011;7225;59.282;18.344;2022-07-11T15:26:37;1.13;;;0.30;;
14282;SDS011;7225;59.282;18.344;2022-07-11T15:29:05;0.60;;;0.30;;
14282;SDS011;7225;59.282;18.344;2022-07-11T15:31:34;0.40;;;0.30;;
14282;SDS011;7225;59.282;18.344;2022-07-11T15:34:02;0.35;;;0.35;;